createdAt,value
2023-05-19T00:02:12.309Z,6.63
2023-05-19T00:04:58.283Z,6.05
2023-05-19T00:07:45.329Z,6.30
2023-05-19T00:10:33.275Z,6.72
2023-05-19T00:13:19.714Z,6.43
2023-05-19T00:16:06.321Z,6.53
2023-05-19T00:18:51.815Z,7.00
2023-05-19T00:21:40.472Z,7.28
2023-05-19T00:24:25.928Z,7.55
2023-05-19T00:27:11.338Z,7.78
2023-05-19T00:29:57.525Z,7.68
2023-05-19T00:32:42.861Z,9.00
2023-05-19T00:35:28.117Z,7.85
2023-05-19T00:38:13.285Z,8.52
2023-05-19T00:41:00.248Z,8.15
2023-05-19T00:43:46.838Z,8.32
2023-05-19T00:46:32.341Z,8.63
2023-05-19T00:49:17.609Z,8.70
2023-05-19T00:52:06.037Z,9.18
2023-05-19T00:54:53.264Z,8.48
2023-05-19T00:57:38.888Z,8.98
2023-05-19T01:00:24.788Z,9.00
2023-05-19T01:03:11.430Z,8.63
2023-05-19T01:06:01.715Z,7.78
2023-05-19T01:08:47.428Z,8.77
2023-05-19T01:11:32.729Z,8.57
2023-05-19T01:14:20.493Z,8.15
2023-05-19T01:17:15.227Z,8.38
2023-05-19T01:20:11.053Z,8.63
2023-05-19T01:23:36.704Z,8.63
2023-05-19T01:26:54.731Z,8.52
2023-05-19T01:30:25.394Z,8.57
2023-05-19T01:33:15.217Z,8.50
2023-05-19T01:36:04.012Z,8.65
2023-05-19T01:38:56.024Z,8.25
2023-05-19T01:41:42.442Z,8.55
2023-05-19T01:44:28.804Z,7.93
2023-05-19T01:47:15.114Z,8.15
2023-05-19T01:50:01.115Z,8.63
2023-05-19T01:52:46.389Z,8.45
2023-05-19T01:55:31.856Z,7.90
2023-05-19T01:58:39.683Z,8.48
2023-05-19T02:01:48.191Z,8.35
2023-05-19T02:04:48.101Z,8.13
2023-05-19T02:08:01.615Z,8.52
2023-05-19T02:11:07.652Z,8.32
2023-05-19T02:14:01.158Z,8.38
2023-05-19T02:16:49.145Z,8.48
2023-05-19T02:19:39.113Z,8.27
2023-05-19T02:22:24.618Z,8.35
2023-05-19T02:25:11.517Z,8.05
2023-05-19T02:27:58.594Z,8.18
2023-05-19T02:30:43.893Z,8.20
2023-05-19T02:33:30.400Z,8.10
2023-05-19T02:36:15.979Z,7.93
2023-05-19T02:39:04.718Z,8.60
2023-05-19T02:41:50.400Z,8.30
2023-05-19T02:44:36.411Z,8.13
2023-05-19T02:47:22.164Z,8.80
2023-05-19T02:50:08.752Z,8.93
2023-05-19T02:52:54.304Z,8.32
2023-05-19T02:55:39.621Z,8.13
2023-05-19T02:58:24.836Z,9.20
2023-05-19T03:01:11.101Z,8.20
2023-05-19T03:03:56.340Z,8.48
2023-05-19T03:06:42.425Z,8.63
2023-05-19T03:09:27.790Z,8.40
2023-05-19T03:12:12.980Z,8.95
2023-05-19T03:14:58.364Z,9.38
2023-05-19T03:17:43.876Z,8.77
2023-05-19T03:20:30.581Z,8.60
2023-05-19T03:23:16.428Z,7.80
2023-05-19T03:26:01.659Z,9.45
2023-05-19T03:28:46.975Z,9.20
2023-05-19T03:31:32.489Z,8.25
2023-05-19T03:34:18.103Z,8.07
2023-05-19T03:37:03.395Z,8.32
2023-05-19T03:39:49.144Z,8.23
2023-05-19T03:42:34.350Z,8.63
2023-05-19T03:45:20.174Z,7.82
2023-05-19T03:48:09.187Z,7.82
2023-05-19T03:51:17.580Z,8.00
2023-05-19T03:54:04.562Z,8.15
2023-05-19T03:56:50.269Z,8.00
2023-05-19T03:59:37.215Z,8.55
2023-05-19T04:02:23.000Z,7.65
2023-05-19T04:05:08.564Z,7.90
2023-05-19T04:07:55.533Z,7.72
2023-05-19T04:10:41.867Z,7.68
2023-05-19T04:13:27.295Z,8.13
2023-05-19T04:16:15.352Z,7.97
2023-05-19T04:19:01.288Z,7.85
2023-05-19T04:21:46.988Z,7.15
2023-05-19T04:24:33.617Z,7.72
2023-05-19T04:27:19.506Z,7.88
2023-05-19T04:30:06.552Z,7.97
2023-05-19T04:32:52.103Z,8.10
2023-05-19T04:35:38.226Z,8.40
2023-05-19T04:38:23.742Z,7.47
2023-05-19T04:41:10.600Z,7.55
2023-05-19T04:43:57.546Z,7.68
2023-05-19T04:46:48.422Z,7.57
2023-05-19T04:49:40.078Z,7.47
2023-05-19T04:52:28.953Z,6.63
2023-05-19T04:55:14.476Z,6.90
2023-05-19T04:58:00.963Z,6.78
2023-05-19T05:00:46.958Z,7.30
2023-05-19T05:03:34.552Z,6.80
2023-05-19T05:06:23.452Z,6.55
2023-05-19T05:09:11.556Z,6.88
2023-05-19T05:11:57.500Z,6.93
2023-05-19T05:14:43.806Z,6.82
2023-05-19T05:17:30.330Z,6.32
2023-05-19T05:20:18.887Z,6.15
2023-05-19T05:23:05.304Z,5.85
2023-05-19T05:25:53.009Z,5.70
2023-05-19T05:28:38.674Z,5.55
2023-05-19T05:31:24.731Z,4.90
2023-05-19T05:34:10.421Z,4.50
2023-05-19T05:36:58.503Z,4.60
2023-05-19T05:39:44.135Z,4.50
2023-05-19T05:42:29.772Z,4.22
2023-05-19T05:45:15.921Z,4.35
2023-05-19T05:48:02.378Z,4.35
2023-05-19T05:50:50.875Z,3.88
2023-05-19T05:53:49.627Z,3.83
2023-05-19T05:56:37.142Z,3.60
2023-05-19T05:59:24.679Z,3.90
2023-05-19T06:02:10.289Z,3.92
2023-05-19T06:04:55.958Z,3.53
2023-05-19T06:07:44.177Z,3.97
2023-05-19T06:10:32.751Z,4.00
2023-05-19T06:13:24.162Z,4.07
2023-05-19T06:16:09.936Z,3.72
2023-05-19T06:18:59.721Z,4.25
2023-05-19T06:21:44.934Z,4.22
2023-05-19T06:24:30.977Z,4.00
2023-05-19T06:27:16.338Z,4.13
2023-05-19T06:30:02.833Z,3.95
2023-05-19T06:32:52.770Z,3.83
2023-05-19T06:35:39.090Z,3.85
2023-05-19T06:38:24.842Z,4.38
2023-05-19T06:41:10.124Z,3.70
2023-05-19T06:43:56.525Z,4.03
2023-05-19T06:46:41.915Z,3.22
2023-05-19T06:49:29.394Z,3.60
2023-05-19T06:52:14.736Z,3.90
2023-05-19T06:55:00.154Z,3.00
2023-05-19T06:57:45.551Z,3.47
2023-05-19T07:00:32.543Z,3.13
2023-05-19T07:03:22.454Z,3.28
2023-05-19T07:06:10.871Z,2.55
2023-05-19T07:08:56.690Z,3.47
2023-05-19T07:11:42.968Z,3.00
2023-05-19T07:14:29.594Z,2.95
2023-05-19T07:17:15.713Z,3.10
2023-05-19T07:20:06.773Z,2.92
2023-05-19T07:22:52.300Z,3.00
2023-05-19T07:25:37.750Z,2.90
2023-05-19T07:28:23.088Z,2.88
2023-05-19T07:31:08.473Z,2.58
2023-05-19T07:33:54.777Z,3.00
2023-05-19T07:36:41.482Z,2.50
2023-05-19T07:39:29.643Z,2.95
2023-05-19T07:42:15.365Z,2.83
2023-05-19T07:45:01.289Z,2.60
2023-05-19T07:47:46.885Z,5.18
2023-05-19T07:50:32.252Z,3.10
2023-05-19T07:53:19.628Z,3.08
2023-05-19T07:56:05.411Z,2.03
2023-05-19T07:58:51.768Z,3.38
2023-05-19T08:01:37.421Z,4.43
2023-05-19T08:04:22.867Z,2.25
2023-05-19T08:07:08.180Z,2.03
2023-05-19T08:09:53.654Z,3.67
2023-05-19T08:12:39.031Z,2.33
2023-05-19T08:15:25.324Z,2.47
2023-05-19T08:18:10.597Z,2.35
2023-05-19T08:20:56.115Z,2.55
2023-05-19T08:23:41.820Z,3.25
2023-05-19T08:26:27.903Z,2.20
2023-05-19T08:29:13.517Z,4.85
2023-05-19T08:31:58.672Z,2.28
2023-05-19T08:34:43.948Z,2.72
2023-05-19T08:37:29.333Z,2.80
2023-05-19T08:40:18.342Z,2.22
2023-05-19T08:43:03.836Z,2.03
2023-05-19T08:45:49.306Z,2.90
2023-05-19T08:48:37.340Z,4.32
2023-05-19T08:51:42.856Z,2.03
2023-05-19T08:54:45.873Z,1.80
2023-05-19T08:57:32.974Z,1.67
2023-05-19T09:00:20.721Z,1.50
2023-05-19T09:03:18.240Z,1.48
2023-05-19T09:06:08.912Z,1.48
2023-05-19T09:08:54.322Z,1.65
2023-05-19T09:11:39.593Z,2.05
2023-05-19T09:14:25.013Z,1.85
2023-05-19T09:17:10.537Z,1.25
2023-05-19T09:19:56.176Z,1.40
2023-05-19T09:22:47.496Z,1.55
2023-05-19T09:25:32.999Z,1.50
2023-05-19T09:28:30.437Z,1.70
2023-05-19T09:31:15.727Z,1.20
2023-05-19T09:34:01.559Z,1.33
2023-05-19T09:36:53.136Z,1.55
2023-05-19T09:39:38.850Z,1.27
2023-05-19T09:42:30.093Z,1.45
2023-05-19T09:45:16.466Z,1.40
2023-05-19T09:48:05.799Z,1.52
2023-05-19T09:50:54.320Z,1.45
2023-05-19T09:53:39.890Z,1.25
2023-05-19T09:56:34.555Z,1.50
2023-05-19T09:59:24.113Z,1.35
2023-05-19T10:02:20.738Z,1.63
2023-05-19T10:05:10.332Z,1.48
2023-05-19T10:07:55.968Z,1.65
2023-05-19T10:10:48.353Z,1.63
2023-05-19T10:13:39.995Z,1.50
2023-05-19T10:16:27.870Z,1.42
2023-05-19T10:19:17.220Z,1.60
2023-05-19T10:22:04.280Z,1.52
2023-05-19T10:24:52.210Z,1.98
2023-05-19T10:27:44.813Z,1.77
2023-05-19T10:30:35.845Z,2.13
2023-05-19T10:33:42.234Z,1.30
2023-05-19T10:36:47.641Z,1.52
2023-05-19T10:39:36.122Z,1.48
2023-05-19T10:42:44.894Z,1.38
2023-05-19T10:45:36.501Z,1.50
2023-05-19T10:48:23.008Z,1.80
2023-05-19T10:51:12.206Z,1.30
2023-05-19T10:54:12.259Z,1.70
2023-05-19T10:57:03.470Z,1.30
2023-05-19T10:59:52.365Z,1.45
2023-05-19T11:02:42.352Z,1.42
2023-05-19T11:05:30.009Z,6.03
2023-05-19T11:08:35.349Z,1.30
2023-05-19T11:11:23.329Z,1.75
2023-05-19T11:14:14.992Z,1.83
2023-05-19T11:17:00.968Z,1.52
2023-05-19T11:19:59.269Z,1.42
2023-05-19T11:23:04.558Z,1.63
2023-05-19T11:25:53.874Z,1.20
2023-05-19T11:28:40.781Z,1.67
2023-05-19T11:31:28.199Z,2.00
2023-05-19T11:34:18.008Z,1.60
2023-05-19T11:37:06.197Z,1.60
2023-05-19T11:39:53.117Z,1.60
2023-05-19T11:42:38.603Z,1.60
2023-05-19T11:45:29.405Z,1.48
2023-05-19T11:48:18.388Z,2.17
2023-05-19T11:51:07.332Z,1.80
2023-05-19T11:53:54.722Z,1.40
2023-05-19T11:56:41.687Z,1.48
2023-05-19T11:59:36.392Z,1.80
2023-05-19T12:02:26.098Z,1.33
2023-05-19T12:05:20.254Z,1.40
2023-05-19T12:08:06.293Z,1.50
2023-05-19T12:10:52.526Z,1.15
2023-05-19T12:13:38.624Z,1.40
2023-05-19T12:16:33.351Z,1.55
2023-05-19T12:19:19.120Z,1.75
2023-05-19T12:22:07.564Z,1.40
2023-05-19T12:24:53.506Z,1.58
2023-05-19T12:27:39.348Z,1.20
2023-05-19T12:30:33.186Z,1.30
2023-05-19T12:36:06.318Z,1.40
2023-05-19T12:38:55.556Z,1.77
2023-05-19T12:41:40.756Z,1.67
2023-05-19T12:44:27.829Z,1.33
2023-05-19T12:47:20.242Z,1.10
2023-05-19T12:50:09.266Z,1.45
2023-05-19T12:52:54.604Z,1.40
2023-05-19T12:55:45.252Z,1.60
2023-05-19T12:58:34.208Z,1.48
2023-05-19T13:01:20.081Z,1.50
2023-05-19T13:04:06.866Z,1.23
2023-05-19T13:06:55.739Z,1.48
2023-05-19T13:09:41.291Z,1.50
2023-05-19T13:12:27.122Z,1.83
2023-05-19T13:15:12.413Z,1.45
2023-05-19T13:17:58.343Z,1.45
2023-05-19T13:20:46.441Z,1.60
2023-05-19T13:23:31.964Z,1.35
2023-05-19T13:26:17.559Z,1.80
2023-05-19T13:29:03.162Z,1.50
2023-05-19T13:31:48.562Z,1.65
2023-05-19T13:34:33.745Z,1.40
2023-05-19T13:37:19.066Z,1.70
2023-05-19T13:40:05.193Z,1.83
2023-05-19T13:42:50.695Z,1.40
2023-05-19T13:45:35.934Z,1.50
2023-05-19T13:48:21.386Z,1.50
2023-05-19T13:51:06.765Z,1.70
2023-05-19T13:53:51.966Z,1.50
2023-05-19T13:56:37.353Z,1.80
2023-05-19T13:59:23.110Z,1.73
2023-05-19T14:02:11.451Z,1.70
2023-05-19T14:05:02.641Z,1.58
2023-05-19T14:07:48.378Z,1.63
2023-05-19T14:10:34.109Z,1.52
2023-05-19T14:13:32.584Z,1.45
2023-05-19T14:16:21.977Z,1.45
2023-05-19T14:19:08.572Z,1.33
2023-05-19T14:21:54.057Z,1.42
2023-05-19T14:24:40.629Z,1.40
2023-05-19T14:27:28.524Z,1.55
2023-05-19T14:30:14.126Z,1.60
2023-05-19T14:32:59.562Z,1.95
2023-05-19T14:35:47.374Z,1.50
2023-05-19T14:38:32.845Z,1.73
2023-05-19T14:41:18.148Z,1.60
2023-05-19T14:44:05.984Z,1.50
2023-05-19T14:46:51.235Z,1.40
2023-05-19T14:49:36.605Z,1.50
2023-05-19T14:52:22.625Z,1.35
2023-05-19T14:55:11.066Z,1.42
2023-05-19T14:57:59.435Z,1.30
2023-05-19T15:00:44.590Z,1.35
2023-05-19T15:03:29.952Z,1.40
2023-05-19T15:06:15.171Z,1.40
2023-05-19T15:09:01.487Z,1.67
2023-05-19T15:11:47.052Z,1.30
2023-05-19T15:14:32.183Z,1.48
2023-05-19T15:17:19.720Z,1.95
2023-05-19T15:20:06.648Z,1.70
2023-05-19T15:22:52.041Z,1.20
2023-05-19T15:25:37.561Z,1.25
2023-05-19T15:28:23.055Z,1.25
2023-05-19T15:31:08.426Z,1.55
2023-05-19T15:33:53.761Z,1.17
2023-05-19T15:36:39.043Z,1.40
2023-05-19T15:39:24.450Z,1.30
2023-05-19T15:42:09.835Z,1.50
2023-05-19T15:44:55.004Z,1.40
2023-05-19T15:47:40.220Z,1.73
2023-05-19T15:50:26.742Z,1.75
2023-05-19T15:53:12.182Z,1.48
2023-05-19T15:55:57.519Z,1.40
2023-05-19T15:58:43.495Z,1.25
2023-05-19T16:01:29.376Z,1.23
2023-05-19T16:04:14.665Z,1.42
2023-05-19T16:07:00.305Z,1.77
2023-05-19T16:09:45.666Z,1.70
2023-05-19T16:12:31.529Z,1.55
2023-05-19T16:15:17.001Z,1.33
2023-05-19T16:18:02.089Z,1.48
2023-05-19T16:20:47.716Z,1.60
2023-05-19T16:23:33.081Z,1.27
2023-05-19T16:26:18.690Z,1.45
2023-05-19T16:29:04.422Z,1.20
2023-05-19T16:31:49.956Z,1.52
2023-05-19T16:34:35.713Z,2.03
2023-05-19T16:37:21.276Z,1.25
2023-05-19T16:40:07.496Z,1.35
2023-05-19T16:42:53.581Z,1.55
2023-05-19T16:45:38.749Z,1.40
2023-05-19T16:48:24.304Z,1.30
2023-05-19T16:51:09.463Z,1.42
2023-05-19T16:53:54.828Z,1.20
2023-05-19T16:56:40.147Z,1.38
2023-05-19T16:59:25.373Z,1.30
2023-05-19T17:02:10.782Z,1.40
2023-05-19T17:04:56.145Z,1.40
2023-05-19T17:07:41.398Z,1.48
2023-05-19T17:10:26.681Z,1.58
2023-05-19T17:13:11.974Z,1.25
2023-05-19T17:15:57.340Z,1.10
2023-05-19T17:18:43.780Z,1.50
2023-05-19T17:21:30.175Z,1.20
2023-05-19T17:24:16.357Z,1.20
2023-05-19T17:27:01.942Z,1.38
2023-05-19T17:29:47.510Z,1.48
2023-05-19T17:32:35.923Z,1.20
2023-05-19T17:35:21.468Z,1.25
2023-05-19T17:38:07.206Z,1.25
2023-05-19T17:40:53.517Z,1.42
2023-05-19T17:43:41.322Z,1.25
2023-05-19T17:46:26.923Z,1.30
2023-05-19T17:49:13.133Z,1.27
2023-05-19T17:51:58.795Z,1.40
2023-05-19T17:54:44.765Z,1.27
2023-05-19T17:57:33.114Z,1.25
2023-05-19T18:00:19.477Z,1.30
2023-05-19T18:03:06.210Z,1.10
2023-05-19T18:05:52.123Z,1.00
2023-05-19T18:08:38.546Z,1.20
2023-05-19T18:11:24.295Z,1.35
2023-05-19T18:14:10.174Z,1.02
2023-05-19T18:16:55.626Z,1.20
2023-05-19T18:19:41.087Z,1.08
2023-05-19T18:22:26.675Z,1.30
2023-05-19T18:25:12.019Z,1.30
2023-05-19T18:27:57.394Z,1.00
2023-05-19T18:30:43.738Z,1.40
2023-05-19T18:33:31.044Z,1.40
2023-05-19T18:36:16.629Z,1.50
2023-05-19T18:39:02.143Z,1.50
2023-05-19T18:41:47.835Z,1.50
2023-05-19T18:44:33.899Z,1.48
2023-05-19T18:47:19.766Z,1.40
2023-05-19T18:50:09.307Z,1.60
2023-05-19T18:52:54.816Z,1.60
2023-05-19T18:55:40.258Z,1.48
2023-05-19T18:58:25.454Z,1.40
2023-05-19T19:01:10.938Z,1.30
2023-05-19T19:03:55.962Z,1.40
2023-05-19T19:06:42.050Z,1.30
2023-05-19T19:09:28.341Z,1.23
2023-05-19T19:12:13.572Z,1.30
2023-05-19T19:14:58.836Z,1.42
2023-05-19T19:17:45.267Z,1.20
2023-05-19T19:20:30.692Z,1.33
2023-05-19T19:23:16.181Z,1.60
2023-05-19T19:26:01.872Z,1.50
2023-05-19T19:28:47.357Z,1.30
2023-05-19T19:31:33.428Z,1.23
2023-05-19T19:34:19.896Z,1.38
2023-05-19T19:37:11.125Z,1.40
2023-05-19T19:39:59.555Z,1.67
2023-05-19T19:42:47.835Z,1.40
2023-05-19T19:45:39.022Z,1.60
2023-05-19T19:48:31.266Z,1.77
2023-05-19T19:51:25.138Z,1.60
2023-05-19T19:54:24.882Z,1.50
2023-05-19T19:57:12.797Z,1.55
2023-05-19T20:00:04.294Z,1.48
2023-05-19T20:03:02.990Z,1.55
2023-05-19T20:05:50.037Z,1.30
2023-05-19T20:08:35.927Z,1.48
2023-05-19T20:11:23.119Z,1.23
2023-05-19T20:14:08.747Z,1.30
2023-05-19T20:16:53.829Z,1.45
2023-05-19T20:19:39.102Z,1.40
2023-05-19T20:22:24.474Z,1.40
2023-05-19T20:25:09.914Z,1.52
2023-05-19T20:27:55.188Z,1.60
2023-05-19T20:30:41.067Z,1.40
2023-05-19T20:33:26.289Z,1.40
2023-05-19T20:36:11.678Z,1.52
2023-05-19T20:38:56.799Z,1.35
2023-05-19T20:41:42.138Z,1.50
2023-05-19T20:44:27.287Z,1.38
2023-05-19T20:47:12.642Z,1.55
2023-05-19T20:49:58.821Z,1.30
2023-05-19T20:52:44.385Z,1.40
2023-05-19T20:55:29.667Z,1.48
2023-05-19T20:58:14.980Z,1.70
2023-05-19T21:01:00.536Z,1.45
2023-05-19T21:03:45.870Z,1.65
2023-05-19T21:06:31.782Z,1.40
2023-05-19T21:09:17.148Z,2.03
2023-05-19T21:12:02.871Z,1.52
2023-05-19T21:14:48.260Z,1.50
2023-05-19T21:17:33.407Z,1.73
2023-05-19T21:20:18.830Z,1.70
2023-05-19T21:23:04.637Z,1.70
2023-05-19T21:25:50.682Z,1.70
2023-05-19T21:28:36.365Z,1.30
2023-05-19T21:31:21.709Z,1.48
2023-05-19T21:34:09.841Z,1.50
2023-05-19T21:36:55.331Z,1.30
2023-05-19T21:39:40.526Z,1.58
2023-05-19T21:42:26.070Z,1.40
2023-05-19T21:45:11.665Z,1.75
2023-05-19T21:47:57.131Z,1.92
2023-05-19T21:50:42.301Z,1.45
2023-05-19T21:53:27.668Z,1.80
2023-05-19T21:56:12.863Z,1.63
2023-05-19T21:58:58.118Z,1.40
2023-05-19T22:01:43.391Z,1.60
2023-05-19T22:04:31.524Z,1.50
2023-05-19T22:07:16.775Z,1.70
2023-05-19T22:10:02.722Z,1.60
2023-05-19T22:12:47.959Z,1.73
2023-05-19T22:15:33.197Z,1.60
2023-05-19T22:18:18.447Z,1.40
2023-05-19T22:21:03.862Z,1.40
2023-05-19T22:23:49.235Z,1.70
2023-05-19T22:26:35.785Z,1.65
2023-05-19T22:29:21.167Z,1.90
2023-05-19T22:32:11.769Z,1.58
2023-05-19T22:34:57.188Z,1.90
2023-05-19T22:37:42.485Z,1.50
2023-05-19T22:40:28.115Z,1.50
2023-05-19T22:43:13.228Z,1.65
2023-05-19T22:45:58.650Z,1.80
2023-05-19T22:48:43.854Z,2.17
2023-05-19T22:51:29.056Z,1.70
2023-05-19T22:54:14.524Z,2.17
2023-05-19T22:56:59.764Z,1.60
2023-05-19T22:59:45.395Z,1.95
2023-05-19T23:02:30.837Z,1.90
2023-05-19T23:05:16.320Z,1.75
2023-05-19T23:08:01.946Z,1.80
2023-05-19T23:10:47.128Z,2.03
2023-05-19T23:13:32.445Z,1.80
2023-05-19T23:16:17.747Z,2.08
2023-05-19T23:19:03.171Z,2.20
2023-05-19T23:21:49.204Z,1.63
2023-05-19T23:24:34.650Z,1.90
2023-05-19T23:27:19.996Z,2.00
2023-05-19T23:30:06.175Z,2.33
2023-05-19T23:32:52.975Z,2.20
2023-05-19T23:35:39.557Z,2.10
2023-05-19T23:38:25.633Z,1.83
2023-05-19T23:41:11.108Z,2.25
2023-05-19T23:43:56.566Z,2.38
2023-05-19T23:46:41.958Z,2.33
2023-05-19T23:49:27.289Z,2.03
2023-05-19T23:52:14.082Z,2.35
2023-05-19T23:54:59.385Z,2.40
2023-05-19T23:57:44.702Z,2.30
